createdAt,value
2022-11-23T00:01:18.390Z,93.00
2022-11-23T00:03:48.284Z,92.90
2022-11-23T00:06:16.073Z,92.80
2022-11-23T00:08:43.317Z,92.80
2022-11-23T00:11:11.137Z,92.80
2022-11-23T00:13:41.352Z,92.70
2022-11-23T00:16:11.521Z,92.70
2022-11-23T00:18:38.766Z,92.60
2022-11-23T00:21:09.913Z,92.60
2022-11-23T00:23:37.804Z,92.60
2022-11-23T00:26:05.931Z,92.60
2022-11-23T00:28:34.874Z,92.60
2022-11-23T00:31:01.975Z,92.60
2022-11-23T00:33:29.150Z,92.70
2022-11-23T00:36:07.408Z,92.60
2022-11-23T00:38:34.658Z,92.60
2022-11-23T00:41:06.609Z,92.70
2022-11-23T00:43:34.412Z,92.60
2022-11-23T00:46:05.432Z,92.50
2022-11-23T00:48:33.048Z,92.50
2022-11-23T00:51:01.901Z,92.60
2022-11-23T00:53:29.197Z,92.80
2022-11-23T00:55:57.151Z,92.90
2022-11-23T00:58:25.365Z,92.70
2022-11-23T01:01:10.390Z,93.20
2022-11-23T01:03:43.376Z,93.30
2022-11-23T01:06:16.352Z,93.40
2022-11-23T01:08:50.493Z,93.40
2022-11-23T01:11:18.776Z,93.60
2022-11-23T01:13:46.156Z,93.70
2022-11-23T01:16:23.943Z,93.70
2022-11-23T01:18:55.497Z,93.90
2022-11-23T01:21:24.655Z,93.90
2022-11-23T01:23:52.553Z,93.90
2022-11-23T01:26:19.997Z,94.00
2022-11-23T01:28:47.653Z,94.00
2022-11-23T01:31:20.026Z,94.10
2022-11-23T01:33:47.327Z,94.10
2022-11-23T01:36:20.308Z,94.00
2022-11-23T01:38:48.480Z,93.70
2022-11-23T01:41:18.612Z,94.00
2022-11-23T01:43:46.580Z,94.10
2022-11-23T01:46:13.849Z,94.10
2022-11-23T01:49:05.707Z,94.20
2022-11-23T01:51:39.761Z,94.30
2022-11-23T01:54:14.018Z,94.40
2022-11-23T01:56:46.239Z,94.30
2022-11-23T01:59:17.783Z,94.50
2022-11-23T02:01:45.027Z,94.60
2022-11-23T02:04:17.764Z,94.60
2022-11-23T02:06:47.734Z,94.60
2022-11-23T02:09:17.086Z,94.70
2022-11-23T02:11:44.774Z,94.60
2022-11-23T02:14:17.889Z,94.60
2022-11-23T02:16:49.318Z,94.60
2022-11-23T02:19:43.257Z,94.50
2022-11-23T02:22:22.697Z,94.60
2022-11-23T02:24:53.604Z,94.40
2022-11-23T02:27:22.647Z,94.30
2022-11-23T02:29:51.700Z,94.20
2022-11-23T02:32:23.871Z,94.20
2022-11-23T02:34:55.665Z,94.20
2022-11-23T02:37:23.244Z,94.30
2022-11-23T02:39:54.497Z,94.30
2022-11-23T02:42:23.264Z,94.40
2022-11-23T02:45:16.243Z,94.30
2022-11-23T02:47:43.507Z,94.20
2022-11-23T02:50:10.705Z,94.30
2022-11-23T02:52:38.225Z,94.20
2022-11-23T02:55:05.779Z,94.00
2022-11-23T02:57:32.957Z,94.00
2022-11-23T03:00:00.105Z,94.00
2022-11-23T03:02:27.450Z,94.00
2022-11-23T03:04:54.624Z,94.00
2022-11-23T03:07:21.925Z,94.00
2022-11-23T03:09:50.303Z,93.70
2022-11-23T03:12:18.681Z,94.00
2022-11-23T03:14:46.448Z,94.00
2022-11-23T03:17:14.149Z,93.90
2022-11-23T03:19:45.421Z,94.00
2022-11-23T03:22:13.714Z,94.00
2022-11-23T03:24:40.971Z,94.00
2022-11-23T03:27:12.540Z,93.90
2022-11-23T03:29:41.118Z,93.30
2022-11-23T03:32:13.051Z,93.60
2022-11-23T03:34:43.420Z,93.60
2022-11-23T03:37:10.653Z,93.50
2022-11-23T03:39:40.720Z,93.40
2022-11-23T03:42:30.192Z,93.30
2022-11-23T03:44:58.004Z,93.20
2022-11-23T03:47:25.175Z,93.20
2022-11-23T03:49:52.375Z,92.70
2022-11-23T03:52:19.639Z,93.00
2022-11-23T03:54:47.991Z,92.90
2022-11-23T03:57:15.193Z,92.90
2022-11-23T03:59:42.512Z,92.80
2022-11-23T04:02:10.192Z,92.80
2022-11-23T04:04:44.780Z,92.70
2022-11-23T04:07:31.238Z,92.70
2022-11-23T04:10:02.066Z,92.70
2022-11-23T04:12:53.550Z,92.60
2022-11-23T04:15:20.920Z,92.50
2022-11-23T04:17:48.170Z,92.60
2022-11-23T04:20:15.572Z,92.60
2022-11-23T04:22:43.156Z,92.60
2022-11-23T04:25:10.779Z,92.50
2022-11-23T04:27:38.063Z,92.40
2022-11-23T04:30:05.785Z,92.40
2022-11-23T04:32:33.234Z,92.40
2022-11-23T04:35:00.678Z,92.40
2022-11-23T04:37:28.212Z,92.40
2022-11-23T04:39:55.461Z,92.00
2022-11-23T04:42:35.851Z,92.30
2022-11-23T04:45:03.460Z,92.30
2022-11-23T04:47:31.741Z,92.20
2022-11-23T04:50:02.731Z,91.80
2022-11-23T04:52:29.935Z,92.00
2022-11-23T04:54:58.158Z,92.00
2022-11-23T04:57:25.403Z,92.40
2022-11-23T04:59:53.001Z,92.00
2022-11-23T05:02:20.183Z,92.10
2022-11-23T05:05:22.711Z,92.20
2022-11-23T05:07:50.063Z,92.70
2022-11-23T05:10:19.564Z,92.30
2022-11-23T05:12:47.937Z,92.20
2022-11-23T05:15:17.252Z,92.20
2022-11-23T05:17:45.447Z,92.20
2022-11-23T05:20:21.447Z,92.20
2022-11-23T05:22:49.244Z,92.20
2022-11-23T05:25:20.704Z,92.10
2022-11-23T05:27:54.958Z,92.00
2022-11-23T05:30:22.651Z,92.00
2022-11-23T05:32:49.909Z,92.00
2022-11-23T05:35:19.030Z,91.90
2022-11-23T05:37:46.305Z,91.80
2022-11-23T05:40:14.025Z,91.70
2022-11-23T05:42:41.656Z,91.70
2022-11-23T05:45:15.254Z,91.70
2022-11-23T05:47:59.036Z,91.60
2022-11-23T05:50:38.653Z,91.50
2022-11-23T05:53:26.543Z,91.50
2022-11-23T05:56:01.860Z,91.50
2022-11-23T05:58:32.613Z,91.40
2022-11-23T06:01:01.022Z,91.30
2022-11-23T06:03:32.137Z,91.20
2022-11-23T06:06:00.089Z,91.10
2022-11-23T06:08:34.012Z,90.80
2022-11-23T06:11:01.729Z,90.60
2022-11-23T06:13:29.710Z,90.30
2022-11-23T06:15:57.532Z,90.20
2022-11-23T06:18:32.162Z,90.00
2022-11-23T06:21:01.069Z,89.90
2022-11-23T06:23:28.661Z,89.80
2022-11-23T06:26:01.346Z,89.20
2022-11-23T06:28:31.592Z,88.90
2022-11-23T06:31:05.247Z,89.00
2022-11-23T06:33:33.942Z,88.90
2022-11-23T06:36:03.058Z,88.80
2022-11-23T06:38:36.614Z,88.40
2022-11-23T06:41:20.646Z,89.20
2022-11-23T06:43:48.307Z,89.50
2022-11-23T06:46:24.350Z,89.80
2022-11-23T06:48:51.492Z,89.90
2022-11-23T06:51:18.657Z,89.80
2022-11-23T06:53:48.203Z,90.00
2022-11-23T06:56:16.119Z,90.10
2022-11-23T06:58:43.387Z,90.10
2022-11-23T07:01:16.578Z,90.20
2022-11-23T07:03:53.678Z,90.10
2022-11-23T07:06:33.852Z,90.10
2022-11-23T07:09:06.580Z,90.30
2022-11-23T07:11:53.992Z,90.50
2022-11-23T07:14:21.198Z,90.80
2022-11-23T07:16:51.202Z,90.90
2022-11-23T07:19:19.419Z,90.90
2022-11-23T07:21:47.608Z,90.80
2022-11-23T07:24:14.805Z,90.80
2022-11-23T07:26:42.122Z,90.70
2022-11-23T07:29:10.352Z,90.70
2022-11-23T07:31:37.589Z,90.80
2022-11-23T07:34:05.207Z,90.60
2022-11-23T07:36:33.249Z,90.80
2022-11-23T07:39:00.386Z,90.80
2022-11-23T07:41:27.956Z,90.80
2022-11-23T07:44:17.963Z,90.70
2022-11-23T07:46:45.628Z,90.60
2022-11-23T07:49:12.818Z,90.50
2022-11-23T07:51:40.002Z,90.60
2022-11-23T07:54:07.195Z,90.50
2022-11-23T07:56:34.487Z,90.40
2022-11-23T07:59:01.693Z,90.30
2022-11-23T08:01:29.046Z,90.20
2022-11-23T08:03:56.649Z,90.10
2022-11-23T08:06:24.036Z,90.00
2022-11-23T08:08:51.172Z,90.00
2022-11-23T08:11:19.522Z,89.80
2022-11-23T08:13:46.718Z,89.50
2022-11-23T08:16:13.904Z,89.40
2022-11-23T08:18:41.039Z,89.30
2022-11-23T08:21:08.221Z,89.10
2022-11-23T08:23:35.469Z,89.20
2022-11-23T08:26:06.579Z,89.10
2022-11-23T08:28:38.619Z,88.30
2022-11-23T08:31:11.341Z,89.20
2022-11-23T08:33:39.466Z,88.80
2022-11-23T08:36:08.581Z,88.80
2022-11-23T08:38:35.918Z,88.80
2022-11-23T08:41:05.486Z,88.90
2022-11-23T08:43:32.792Z,89.00
2022-11-23T08:46:05.646Z,88.90
2022-11-23T08:48:35.187Z,88.70
2022-11-23T08:51:02.407Z,88.70
2022-11-23T08:53:29.601Z,88.50
2022-11-23T08:56:00.251Z,88.20
2022-11-23T08:58:27.403Z,88.20
2022-11-23T09:00:54.535Z,88.20
2022-11-23T09:03:21.688Z,89.40
2022-11-23T09:05:48.864Z,90.30
2022-11-23T09:08:16.437Z,90.90
2022-11-23T09:10:44.000Z,91.00
2022-11-23T09:13:11.145Z,91.10
2022-11-23T09:15:38.407Z,91.00
2022-11-23T09:18:05.659Z,90.60
2022-11-23T09:20:32.833Z,91.50
2022-11-23T09:22:59.992Z,91.10
2022-11-23T09:25:27.185Z,90.40
2022-11-23T09:27:59.444Z,89.60
2022-11-23T09:30:27.344Z,88.30
2022-11-23T09:32:58.836Z,87.30
2022-11-23T09:35:26.338Z,85.90
2022-11-23T09:37:58.346Z,87.70
2022-11-23T09:40:39.069Z,83.90
2022-11-23T09:43:38.156Z,67.70
2022-11-23T09:46:42.695Z,60.60
2022-11-23T09:49:09.828Z,53.10
2022-11-23T09:51:39.167Z,46.90
2022-11-23T09:54:21.109Z,45.50
2022-11-23T09:56:51.202Z,43.80
2022-11-23T09:59:30.615Z,40.80
2022-11-23T10:01:58.723Z,41.40
2022-11-23T10:04:29.630Z,40.50
2022-11-23T10:07:22.767Z,40.50
2022-11-23T10:10:26.743Z,38.60
2022-11-23T10:13:20.683Z,38.60
2022-11-23T10:16:02.369Z,39.80
2022-11-23T10:18:38.450Z,40.30
2022-11-23T10:21:14.781Z,38.70
2022-11-23T10:23:50.770Z,37.60
2022-11-23T10:26:20.378Z,37.40
2022-11-23T10:28:49.454Z,36.30
2022-11-23T10:31:18.183Z,35.20
2022-11-23T10:34:08.288Z,36.50
2022-11-23T10:36:36.828Z,36.70
2022-11-23T10:39:17.523Z,35.60
2022-11-23T10:41:46.308Z,35.70
2022-11-23T10:44:31.077Z,33.90
2022-11-23T10:47:00.109Z,34.80
2022-11-23T10:49:30.375Z,36.30
2022-11-23T10:51:59.104Z,36.50
2022-11-23T10:54:28.366Z,37.00
2022-11-23T10:56:56.962Z,38.50
2022-11-23T10:59:38.687Z,39.30
2022-11-23T11:02:39.154Z,37.10
2022-11-23T11:05:53.591Z,34.30
2022-11-23T11:08:20.350Z,37.60
2022-11-23T11:10:58.231Z,39.40
2022-11-23T11:13:27.682Z,42.70
2022-11-23T11:15:58.033Z,45.60
2022-11-23T11:18:28.965Z,42.30
2022-11-23T11:20:58.659Z,45.30
2022-11-23T11:23:26.653Z,51.30
2022-11-23T11:26:04.316Z,57.90
2022-11-23T11:28:37.432Z,63.20
2022-11-23T11:31:25.350Z,66.30
2022-11-23T11:33:58.674Z,68.50
2022-11-23T11:36:32.588Z,69.30
2022-11-23T11:39:18.177Z,70.10
2022-11-23T11:41:48.842Z,70.80
2022-11-23T11:44:26.874Z,71.80
2022-11-23T11:47:06.352Z,68.70
2022-11-23T11:49:42.654Z,65.80
2022-11-23T11:52:21.818Z,62.30
2022-11-23T11:55:11.982Z,53.60
2022-11-23T11:57:54.724Z,49.10
2022-11-23T12:00:22.092Z,45.50
2022-11-23T12:03:08.478Z,42.90
2022-11-23T12:05:48.281Z,43.30
2022-11-23T12:08:34.216Z,42.60
2022-11-23T12:11:02.223Z,42.70
2022-11-23T12:13:33.998Z,44.30
2022-11-23T12:16:10.504Z,45.20
2022-11-23T12:18:41.847Z,46.30
2022-11-23T12:21:43.320Z,46.10
2022-11-23T12:24:27.031Z,44.40
2022-11-23T12:27:25.801Z,47.40
2022-11-23T12:30:16.342Z,47.20
2022-11-23T12:32:46.489Z,45.80
2022-11-23T12:35:44.211Z,45.60
2022-11-23T12:38:49.105Z,48.60
2022-11-23T12:41:42.154Z,49.90
2022-11-23T12:44:40.312Z,49.20
2022-11-23T12:47:29.765Z,48.10
2022-11-23T12:49:59.674Z,51.40
2022-11-23T12:52:55.787Z,54.00
2022-11-23T12:55:57.261Z,57.80
2022-11-23T12:58:32.350Z,61.90
2022-11-23T13:01:05.427Z,64.70
2022-11-23T13:04:12.922Z,66.20
2022-11-23T13:07:28.004Z,67.50
2022-11-23T13:10:32.372Z,68.40
2022-11-23T13:13:22.180Z,69.20
2022-11-23T13:16:21.536Z,69.60
2022-11-23T13:19:26.566Z,70.40
2022-11-23T13:21:54.498Z,70.70
2022-11-23T13:24:27.129Z,71.20
2022-11-23T13:27:13.071Z,71.30
2022-11-23T13:29:49.509Z,71.50
2022-11-23T13:32:46.443Z,71.80
2022-11-23T13:35:16.579Z,72.70
2022-11-23T13:38:01.516Z,75.10
2022-11-23T13:40:36.656Z,76.90
2022-11-23T13:43:20.883Z,78.90
2022-11-23T13:46:23.043Z,81.00
2022-11-23T13:48:57.513Z,83.10
2022-11-23T13:51:33.540Z,84.60
2022-11-23T13:54:21.209Z,86.10
2022-11-23T13:56:59.114Z,87.00
2022-11-23T13:59:34.634Z,87.90
2022-11-23T14:02:08.050Z,88.30
2022-11-23T14:04:38.613Z,88.90
2022-11-23T14:07:13.014Z,89.50
2022-11-23T14:09:53.876Z,90.00
2022-11-23T14:12:36.420Z,90.20
2022-11-23T14:15:11.111Z,90.80
2022-11-23T14:17:52.981Z,90.60
2022-11-23T14:20:39.975Z,90.90
2022-11-23T14:23:34.967Z,91.00
2022-11-23T14:26:23.299Z,91.30
2022-11-23T14:29:27.734Z,91.40
2022-11-23T14:32:27.225Z,91.60
2022-11-23T14:34:58.601Z,91.70
2022-11-23T14:37:58.065Z,91.80
2022-11-23T14:40:30.710Z,91.90
2022-11-23T14:43:00.140Z,92.00
2022-11-23T14:45:35.342Z,92.40
2022-11-23T14:48:22.755Z,92.00
2022-11-23T14:51:13.197Z,92.10
2022-11-23T14:54:02.545Z,92.20
2022-11-23T14:56:39.062Z,92.20
2022-11-23T14:59:09.988Z,92.00
2022-11-23T15:01:37.883Z,92.40
2022-11-23T15:04:10.791Z,92.50
2022-11-23T15:06:45.788Z,92.60
2022-11-23T15:09:47.836Z,92.50
2022-11-23T15:12:23.832Z,92.50
2022-11-23T15:14:53.910Z,92.40
2022-11-23T15:17:22.165Z,92.50
2022-11-23T15:19:59.184Z,92.40
2022-11-23T15:22:28.185Z,92.50
2022-11-23T15:25:08.987Z,92.50
2022-11-23T15:27:40.038Z,92.60
2022-11-23T15:30:27.093Z,92.70
2022-11-23T15:32:59.478Z,92.70
2022-11-23T15:35:35.065Z,92.70
2022-11-23T15:38:04.436Z,92.70
2022-11-23T15:40:35.545Z,92.70
2022-11-23T15:43:03.048Z,92.80
2022-11-23T15:46:11.482Z,92.80
2022-11-23T15:48:38.775Z,92.70
2022-11-23T15:51:08.823Z,92.70
2022-11-23T15:53:49.202Z,92.80
2022-11-23T15:56:28.717Z,93.00
2022-11-23T15:58:57.372Z,92.50
2022-11-23T16:01:25.306Z,92.80
2022-11-23T16:04:02.017Z,92.70
2022-11-23T16:06:38.189Z,92.70
2022-11-23T16:09:51.250Z,92.20
2022-11-23T16:13:08.643Z,92.60
2022-11-23T16:15:38.869Z,92.60
2022-11-23T16:18:23.352Z,92.70
2022-11-23T16:21:04.831Z,92.80
2022-11-23T16:23:44.160Z,92.80
2022-11-23T16:26:12.867Z,92.70
2022-11-23T16:28:51.706Z,92.20
2022-11-23T16:31:37.716Z,92.60
2022-11-23T16:34:17.118Z,92.50
2022-11-23T16:36:44.590Z,92.30
2022-11-23T16:39:11.904Z,92.40
2022-11-23T16:41:39.027Z,92.40
2022-11-23T16:44:06.305Z,92.30
2022-11-23T16:46:36.725Z,92.30
2022-11-23T16:49:12.906Z,92.30
2022-11-23T16:51:40.071Z,92.30
2022-11-23T16:54:13.370Z,92.20
2022-11-23T16:56:41.375Z,92.10
2022-11-23T16:59:16.163Z,91.80
2022-11-23T17:01:45.819Z,92.10
2022-11-23T17:04:16.009Z,92.10
2022-11-23T17:06:44.079Z,92.00
2022-11-23T17:09:11.615Z,92.10
2022-11-23T17:11:42.065Z,92.10
2022-11-23T17:14:18.919Z,92.00
2022-11-23T17:16:57.539Z,91.90
2022-11-23T17:19:28.287Z,92.00
2022-11-23T17:21:55.466Z,92.00
2022-11-23T17:24:22.694Z,92.00
2022-11-23T17:26:53.162Z,92.00
2022-11-23T17:29:21.174Z,92.10
2022-11-23T17:31:49.498Z,92.00
2022-11-23T17:34:17.871Z,92.00
2022-11-23T17:36:47.194Z,92.00
2022-11-23T17:39:19.849Z,91.70
2022-11-23T17:41:48.088Z,92.10
2022-11-23T17:44:16.466Z,92.10
2022-11-23T17:46:45.148Z,92.10
2022-11-23T17:49:14.682Z,92.20
2022-11-23T17:51:43.063Z,92.20
2022-11-23T17:54:10.247Z,92.30
2022-11-23T17:56:38.240Z,92.30
2022-11-23T17:59:06.553Z,92.20
2022-11-23T18:01:33.818Z,92.40
2022-11-23T18:04:01.253Z,92.00
2022-11-23T18:06:29.318Z,92.00
2022-11-23T18:08:56.922Z,92.00
2022-11-23T18:11:24.208Z,92.10
2022-11-23T18:13:51.716Z,92.20
2022-11-23T18:16:20.454Z,92.20
2022-11-23T18:18:48.296Z,92.60
2022-11-23T18:21:15.548Z,92.20
2022-11-23T18:23:42.917Z,92.20
2022-11-23T18:26:19.152Z,92.20
2022-11-23T18:28:46.657Z,92.30
2022-11-23T18:31:13.946Z,92.30
2022-11-23T18:33:41.885Z,92.30
2022-11-23T18:36:10.523Z,92.40
2022-11-23T18:38:38.149Z,92.50
2022-11-23T18:41:05.838Z,92.60
2022-11-23T18:43:33.536Z,92.50
2022-11-23T18:46:00.898Z,92.40
2022-11-23T18:48:28.147Z,92.50
2022-11-23T18:50:55.299Z,92.60
2022-11-23T18:53:23.068Z,92.60
2022-11-23T18:55:50.321Z,92.50
2022-11-23T18:58:18.056Z,92.60
2022-11-23T19:00:45.317Z,92.60
2022-11-23T19:03:12.811Z,92.70
2022-11-23T19:05:40.097Z,92.80
2022-11-23T19:08:08.670Z,92.80
2022-11-23T19:10:38.234Z,92.60
2022-11-23T19:13:06.185Z,92.50
2022-11-23T19:15:34.211Z,92.50
2022-11-23T19:18:01.431Z,92.20
2022-11-23T19:20:29.459Z,92.60
2022-11-23T19:22:56.609Z,92.60
2022-11-23T19:25:24.801Z,92.60
2022-11-23T19:27:52.738Z,92.70
2022-11-23T19:30:19.943Z,92.70
2022-11-23T19:32:47.232Z,92.70
2022-11-23T19:35:14.518Z,92.70
2022-11-23T19:37:41.691Z,92.70
2022-11-23T19:40:10.797Z,92.80
2022-11-23T19:42:38.048Z,92.80
2022-11-23T19:45:05.667Z,92.90
2022-11-23T19:47:32.856Z,92.90
2022-11-23T19:50:00.126Z,92.80
2022-11-23T19:52:55.421Z,92.80
2022-11-23T19:55:17.388Z,92.90
2022-11-23T19:57:44.544Z,92.90
2022-11-23T20:00:12.508Z,92.50
2022-11-23T20:02:39.748Z,92.90
2022-11-23T20:05:07.835Z,92.90
2022-11-23T20:07:35.193Z,92.90
2022-11-23T20:10:02.772Z,92.90
2022-11-23T20:12:29.944Z,92.80
2022-11-23T20:14:57.817Z,92.70
2022-11-23T20:17:27.073Z,92.80
2022-11-23T20:19:54.258Z,92.40
2022-11-23T20:22:21.433Z,92.80
2022-11-23T20:24:48.604Z,92.90
2022-11-23T20:27:15.826Z,92.70
2022-11-23T20:29:43.005Z,92.70
2022-11-23T20:32:12.102Z,92.70
2022-11-23T20:34:39.251Z,92.60
2022-11-23T20:37:06.546Z,92.60
2022-11-23T20:39:33.668Z,92.60
2022-11-23T20:42:01.733Z,92.60
2022-11-23T20:44:33.737Z,92.60
2022-11-23T20:47:04.021Z,92.60
2022-11-23T20:49:33.885Z,92.60
2022-11-23T20:52:02.018Z,92.70
2022-11-23T20:54:29.361Z,92.70
2022-11-23T20:56:59.747Z,92.70
2022-11-23T20:59:26.873Z,92.60
2022-11-23T21:01:54.184Z,92.70
2022-11-23T21:04:21.449Z,93.00
2022-11-23T21:06:48.637Z,92.80
2022-11-23T21:09:17.027Z,92.60
2022-11-23T21:12:03.077Z,92.70
2022-11-23T21:14:32.682Z,92.80
2022-11-23T21:17:00.273Z,92.90
2022-11-23T21:19:36.482Z,92.90
2022-11-23T21:22:12.640Z,92.90
2022-11-23T21:24:40.773Z,92.90
2022-11-23T21:27:12.025Z,93.00
2022-11-23T21:29:39.231Z,92.50
2022-11-23T21:32:06.378Z,92.80
2022-11-23T21:34:33.983Z,92.80
2022-11-23T21:37:01.597Z,92.80
2022-11-23T21:39:32.885Z,92.50
2022-11-23T21:42:00.096Z,92.90
2022-11-23T21:44:27.445Z,92.80
2022-11-23T21:46:54.762Z,92.90
2022-11-23T21:49:21.976Z,92.90
2022-11-23T21:51:49.246Z,92.90
2022-11-23T21:54:16.619Z,92.90
2022-11-23T21:56:45.642Z,92.80
2022-11-23T21:59:13.341Z,92.60
2022-11-23T22:01:41.635Z,93.00
2022-11-23T22:04:11.264Z,92.90
2022-11-23T22:06:39.340Z,92.90
2022-11-23T22:09:09.364Z,92.90
2022-11-23T22:11:39.398Z,92.90
2022-11-23T22:14:09.051Z,93.00
2022-11-23T22:16:38.448Z,93.00
2022-11-23T22:19:06.504Z,92.80
2022-11-23T22:21:35.959Z,93.10
2022-11-23T22:24:04.633Z,93.10
2022-11-23T22:26:32.222Z,93.10
2022-11-23T22:29:05.923Z,93.10
2022-11-23T22:31:34.551Z,93.10
2022-11-23T22:34:03.355Z,93.10
2022-11-23T22:36:30.557Z,93.10
2022-11-23T22:39:02.020Z,92.80
2022-11-23T22:41:36.687Z,93.10
2022-11-23T22:44:06.078Z,93.10
2022-11-23T22:46:33.572Z,93.10
2022-11-23T22:49:01.812Z,92.70
2022-11-23T22:51:29.732Z,93.10
2022-11-23T22:53:58.705Z,93.00
2022-11-23T22:56:26.929Z,93.10
2022-11-23T22:58:54.291Z,92.60
2022-11-23T23:01:24.641Z,93.00
2022-11-23T23:03:56.407Z,93.00
2022-11-23T23:06:29.128Z,92.80
2022-11-23T23:08:58.106Z,92.70
2022-11-23T23:11:27.182Z,92.70
2022-11-23T23:13:54.991Z,92.60
2022-11-23T23:16:22.907Z,93.10
2022-11-23T23:18:51.317Z,92.70
2022-11-23T23:21:21.063Z,92.60
2022-11-23T23:23:51.116Z,92.60
2022-11-23T23:26:21.885Z,92.60
2022-11-23T23:28:52.831Z,92.50
2022-11-23T23:31:20.042Z,92.50
2022-11-23T23:33:47.302Z,92.50
2022-11-23T23:36:16.778Z,92.50
2022-11-23T23:38:44.105Z,92.70
2022-11-23T23:41:12.372Z,92.80
2022-11-23T23:43:40.313Z,92.70
2022-11-23T23:46:11.267Z,92.80
2022-11-23T23:48:40.343Z,92.70
2022-11-23T23:51:15.334Z,92.60
2022-11-23T23:53:43.497Z,92.50
2022-11-23T23:56:22.686Z,92.30
2022-11-23T23:58:50.228Z,92.70
